Vremea mâine în Odorheiu Secuiesc - Romania

Vrei sa afli care e starea vremii acum in Harghita - Romania? Dorim sa iti furnizam starea vremii pentru Harghita - Romania. Starea vremii Harghita - Romania pentru astazi.

Vremea mâine în Odorheiu Secuiesc

Temperatura minimă:
5.4 °C

Temperatura maximă:
20.9 °C

Mâine va fi: Senin
Precipitații: 0 %
Umiditate: 64%
Viteza maximă vânt mâine:
8.6 km/h

Evoluția vremii in Odorheiu Secuiesc pe ore mâine

Ora: 13:00
Temperatura: °C
Sansa de precipitatii: %
Ora Descriere Temp Se simte Precipitatii Umiditate Vant
00:00Senin7.4°6.4°0%84%ENE 6.1 KM/H
01:00Senin6.1°0%84%ENE 5.8 KM/H
02:00Senin6.7°5.5°0%84%NE 6.5 KM/H
03:00Senin6.4°5.3°0%85%ENE 6.1 KM/H
04:00Senin5.1°0%85%ENE 5.4 KM/H
05:00Senin5.6°4.8°0%86%ENE 5 KM/H
06:00Senin5.4°4.5°0%86%ENE 5 KM/H
07:00Senin6.7°5.9°0%83%E 5.4 KM/H
08:00Senin11.4°11.7°0%74%ESE 4 KM/H
09:00Senin13.9°14.3°0%66%SE 4.3 KM/H
10:00Senin16.1°16.1°0%59%SSE 4.7 KM/H
11:00Senin17.7°17.7°0%52%S 6.1 KM/H
12:00Senin18.8°18.8°0%46%S 7.2 KM/H
13:00Senin19.7°19.7°0%42%S 7.9 KM/H
14:00Senin20.3°20.3°0%40%S 8.6 KM/H
15:00Senin20.6°20.6°0%39%SSW 8.3 KM/H
16:00Senin20.9°20.9°0%39%SSW 7.9 KM/H
17:00Senin20.8°20.8°0%39%SSW 7.2 KM/H
18:00Senin20.4°20.4°0%41%SSW 6.8 KM/H
19:00Senin19.4°19.4°0%52%SSW 5.4 KM/H
20:00Senin14°14.2°0%59%SE 5 KM/H
21:00Senin11.3°10.6°0%65%ESE 7.9 KM/H
22:00Senin10°0%73%E 8.3 KM/H
23:00Senin9.2°8.2°0%78%E 7.2 KM/H




tutorials